Time;durP1;ratioP1;P1;durP2;ratioP2;P2;SDS_P1;SDS_P2;PMS_P1;PMS_P2;Temp;Humidity;BMP_temperature;BMP_pressure;BME280_temperature;BME280_humidity;BME280_pressure;Samples;Min_cycle;Max_cycle;Signal;HPM_P1;HPM_P2
2021/03/11 00:00:57;;;;;;;10.60;6.85;;;;;;;;;;5053720;28;20096;-80
2021/03/11 00:03:24;;;;;;;12.73;7.53;;;;;;;;;;5052247;28;20028;-79
2021/03/11 00:05:50;;;;;;;11.18;7.20;;;;;;;;;;5052644;28;20339;-79
2021/03/11 00:08:16;;;;;;;11.13;7.38;;;;;;;;;;5051786;28;20035;-76
2021/03/11 00:10:43;;;;;;;10.95;7.35;;;;;;;;;;5053110;28;20027;-73
2021/03/11 00:13:09;;;;;;;13.43;7.47;;;;;;;;;;5053243;28;20025;-72
2021/03/11 00:15:37;;;;;;;11.68;6.95;;;;;;;;;;5053053;28;20032;-71
2021/03/11 00:18:04;;;;;;;11.40;7.18;;;;;;;;;;5052555;28;20393;-76
2021/03/11 00:20:30;;;;;;;12.18;7.38;;;;;;;;;;5053065;28;20017;-69
2021/03/11 00:22:56;;;;;;;15.45;7.32;;;;;;;;;;5049818;28;20041;-71
2021/03/11 00:25:24;;;;;;;12.40;7.15;;;;;;;;;;5032965;28;20471;-76
2021/03/11 00:27:50;;;;;;;11.30;7.47;;;;;;;;;;5033035;28;20116;-73
2021/03/11 00:30:17;;;;;;;11.43;7.30;;;;;;;;;;5033012;28;20023;-71
2021/03/11 00:32:43;;;;;;;12.35;7.72;;;;;;;;;;5033033;28;20025;-76
2021/03/11 00:35:10;;;;;;;15.57;7.75;;;;;;;;;;5033155;28;20067;-76
2021/03/11 00:37:37;;;;;;;10.93;7.15;;;;;;;;;;5032748;28;20029;-73
2021/03/11 00:40:04;;;;;;;11.38;7.03;;;;;;;;;;5036973;28;20154;-73
2021/03/11 00:42:30;;;;;;;11.88;7.35;;;;;;;;;;5051207;28;20491;-73
2021/03/11 00:44:56;;;;;;;12.00;7.22;;;;;;;;;;5050828;28;20036;-83
2021/03/11 00:47:23;;;;;;;12.82;7.68;;;;;;;;;;5046816;28;20021;-69
2021/03/11 00:49:49;;;;;;;14.82;7.68;;;;;;;;;;5052191;28;20056;-77
2021/03/11 00:52:15;;;;;;;10.10;6.90;;;;;;;;;;5048588;28;20021;-69
2021/03/11 00:54:42;;;;;;;11.77;7.00;;;;;;;;;;5050417;28;20021;-87
2021/03/11 00:57:08;;;;;;;15.55;7.60;;;;;;;;;;5053285;28;20099;-69
2021/03/11 00:59:34;;;;;;;10.95;6.95;;;;;;;;;;5050399;28;20017;-83
2021/03/11 01:02:00;;;;;;;10.13;7.07;;;;;;;;;;5053000;28;20021;-68
2021/03/11 01:04:26;;;;;;;13.48;7.90;;;;;;;;;;5050735;28;20021;-67
2021/03/11 01:06:52;;;;;;;12.32;7.53;;;;;;;;;;5050133;28;20052;-68
2021/03/11 01:09:19;;;;;;;10.77;7.18;;;;;;;;;;5050171;28;20037;-68
2021/03/11 01:11:45;;;;;;;11.77;6.80;;;;;;;;;;5038538;28;20094;-80
2021/03/11 01:14:11;;;;;;;11.15;6.93;;;;;;;;;;5036236;28;20029;-77
2021/03/11 01:16:37;;;;;;;11.38;7.28;;;;;;;;;;5051080;28;20060;-71
2021/03/11 01:19:03;;;;;;;10.98;7.30;;;;;;;;;;5052393;28;20017;-75
2021/03/11 01:21:29;;;;;;;12.30;7.20;;;;;;;;;;5050068;28;20094;-75
2021/03/11 01:23:55;;;;;;;11.68;7.22;;;;;;;;;;5051459;28;20025;-77
2021/03/11 01:26:22;;;;;;;11.25;7.05;;;;;;;;;;5051499;28;20017;-81
2021/03/11 01:28:48;;;;;;;11.82;7.30;;;;;;;;;;5050361;28;20028;-75
2021/03/11 01:31:14;;;;;;;12.18;8.25;;;;;;;;;;5044838;28;20092;-81
2021/03/11 01:33:40;;;;;;;10.10;7.15;;;;;;;;;;5030423;28;20034;-71
2021/03/11 01:36:06;;;;;;;12.18;7.47;;;;;;;;;;5043103;28;20029;-69
2021/03/11 01:38:32;;;;;;;11.00;7.35;;;;;;;;;;5050227;28;20036;-74
2021/03/11 01:40:58;;;;;;;11.00;7.07;;;;;;;;;;5051009;28;20151;-70
2021/03/11 01:43:24;;;;;;;11.65;6.85;;;;;;;;;;5051042;28;20025;-80
2021/03/11 01:45:51;;;;;;;10.75;7.25;;;;;;;;;;5056898;28;20024;-87
2021/03/11 01:48:18;;;;;;;11.63;6.97;;;;;;;;;;5049682;28;20124;-75
2021/03/11 01:50:44;;;;;;;11.68;7.03;;;;;;;;;;5050119;28;20025;-70
2021/03/11 01:53:10;;;;;;;12.25;7.70;;;;;;;;;;5051446;28;20033;-80
2021/03/11 01:55:36;;;;;;;11.20;7.10;;;;;;;;;;5051296;28;20033;-83
2021/03/11 01:58:03;;;;;;;12.15;7.43;;;;;;;;;;5048998;28;20033;-70
2021/03/11 02:00:29;;;;;;;11.05;7.45;;;;;;;;;;5052220;28;20121;-69
2021/03/11 02:02:55;;;;;;;10.82;7.20;;;;;;;;;;5055311;28;20013;-75
2021/03/11 02:05:22;;;;;;;11.02;7.47;;;;;;;;;;5048898;28;20021;-70
2021/03/11 02:07:48;;;;;;;12.73;7.70;;;;;;;;;;5034222;28;20029;-69
2021/03/11 02:10:17;;;;;;;11.43;7.63;;;;;;;;;;5042783;28;20039;-76
2021/03/11 02:13:02;;;;;;;12.32;6.63;;;;;;;;;;5054868;28;20564;-77
2021/03/11 02:15:31;;;;;;;14.27;7.03;;;;;;;;;;5053830;28;20389;-76
2021/03/11 02:17:59;;;;;;;10.65;7.03;;;;;;;;;;5055380;28;20150;-78
2021/03/11 02:20:32;;;;;;;13.90;8.15;;;;;;;;;;5054298;28;20071;-83
2021/03/11 02:23:04;;;;;;;12.82;7.45;;;;;;;;;;5043724;28;20136;-80
2021/03/11 02:25:49;;;;;;;12.18;8.50;;;;;;;;;;5035425;28;20028;-73
2021/03/11 02:28:33;;;;;;;14.93;7.93;;;;;;;;;;5033755;28;20044;-73
2021/03/11 02:31:00;;;;;;;12.65;8.65;;;;;;;;;;5043621;28;20074;-73
2021/03/11 02:33:27;;;;;;;15.55;8.82;;;;;;;;;;5055250;28;20039;-78
2021/03/11 02:35:54;;;;;;;12.80;8.60;;;;;;;;;;5054160;28;20036;-82
2021/03/11 02:38:21;;;;;;;12.90;8.95;;;;;;;;;;5053897;28;20101;-75
2021/03/11 02:40:47;;;;;;;13.88;8.55;;;;;;;;;;5053021;28;20029;-74
2021/03/11 02:43:14;;;;;;;15.55;9.70;;;;;;;;;;5053642;28;20119;-73
2021/03/11 02:45:41;;;;;;;15.32;9.32;;;;;;;;;;5053742;28;20017;-78
2021/03/11 02:48:08;;;;;;;15.13;9.30;;;;;;;;;;5052998;28;20052;-74
2021/03/11 02:50:35;;;;;;;17.30;9.80;;;;;;;;;;5055050;28;20485;-78
2021/03/11 02:53:02;;;;;;;13.55;9.15;;;;;;;;;;5053748;28;20064;-78
2021/03/11 02:55:30;;;;;;;15.27;9.80;;;;;;;;;;5053596;28;20064;-72
2021/03/11 02:57:56;;;;;;;16.23;9.32;;;;;;;;;;5035487;28;20029;-74
2021/03/11 03:00:23;;;;;;;14.25;8.90;;;;;;;;;;5033598;28;20536;-79
2021/03/11 03:02:50;;;;;;;12.85;8.48;;;;;;;;;;5038802;28;20027;-73
2021/03/11 03:05:20;;;;;;;14.73;8.30;;;;;;;;;;5054874;28;20051;-75
2021/03/11 03:07:47;;;;;;;14.98;8.98;;;;;;;;;;5054637;28;20036;-72
2021/03/11 03:10:17;;;;;;;14.63;8.73;;;;;;;;;;5052719;28;20093;-72
2021/03/11 03:12:43;;;;;;;15.20;8.85;;;;;;;;;;5051668;28;20029;-79
2021/03/11 03:15:10;;;;;;;12.77;9.18;;;;;;;;;;5034501;28;20052;-72
2021/03/11 03:17:37;;;;;;;13.60;9.30;;;;;;;;;;5033520;28;20375;-76
2021/03/11 03:20:06;;;;;;;11.93;7.85;;;;;;;;;;5052899;28;20033;-75
2021/03/11 03:22:33;;;;;;;14.68;8.85;;;;;;;;;;5052909;28;20045;-77
2021/03/11 03:24:59;;;;;;;14.73;9.10;;;;;;;;;;5054566;28;20025;-75
2021/03/11 03:27:25;;;;;;;14.57;9.32;;;;;;;;;;5054260;28;20025;-73
2021/03/11 03:29:51;;;;;;;15.90;9.10;;;;;;;;;;5053540;28;20038;-77
2021/03/11 03:32:17;;;;;;;13.88;8.75;;;;;;;;;;5054077;28;20025;-75
2021/03/11 03:34:43;;;;;;;15.73;9.80;;;;;;;;;;5053575;28;20100;-74
2021/03/11 03:37:09;;;;;;;13.50;8.85;;;;;;;;;;5054066;28;20024;-78
2021/03/11 03:39:35;;;;;;;13.57;8.95;;;;;;;;;;5054411;28;20028;-75
2021/03/11 03:42:05;;;;;;;15.80;8.98;;;;;;;;;;5052383;28;20071;-76
2021/03/11 03:44:33;;;;;;;14.05;9.18;;;;;;;;;;5052715;28;20071;-73
2021/03/11 03:47:01;;;;;;;13.02;8.63;;;;;;;;;;5053512;28;20029;-79
2021/03/11 03:49:27;;;;;;;15.75;9.43;;;;;;;;;;5053410;28;20041;-76
2021/03/11 03:51:54;;;;;;;13.85;8.90;;;;;;;;;;5053846;28;20489;-73
2021/03/11 03:54:22;;;;;;;13.77;9.20;;;;;;;;;;5053737;28;20033;-74
2021/03/11 03:56:54;;;;;;;15.05;9.25;;;;;;;;;;5053941;28;20020;-76
2021/03/11 03:59:40;;;;;;;13.93;9.10;;;;;;;;;;5053996;28;20032;-71
2021/03/11 04:02:07;;;;;;;12.88;8.30;;;;;;;;;;5053703;28;20154;-74
2021/03/11 04:04:36;;;;;;;14.35;9.18;;;;;;;;;;5052854;28;20578;-75
2021/03/11 04:07:03;;;;;;;14.88;9.30;;;;;;;;;;5050601;28;20116;-76
2021/03/11 04:09:29;;;;;;;12.20;8.65;;;;;;;;;;5052046;28;20075;-74
2021/03/11 04:11:57;;;;;;;14.40;9.02;;;;;;;;;;5053281;28;20025;-75
2021/03/11 04:14:23;;;;;;;13.40;8.85;;;;;;;;;;5053457;28;20028;-78
2021/03/11 04:16:49;;;;;;;14.77;8.73;;;;;;;;;;5053359;28;20021;-75
2021/03/11 04:19:17;;;;;;;16.77;8.82;;;;;;;;;;5053456;28;20607;-72
2021/03/11 04:21:43;;;;;;;13.10;8.20;;;;;;;;;;5047432;28;20511;-75
2021/03/11 04:24:10;;;;;;;14.43;8.95;;;;;;;;;;5051857;28;20021;-74
2021/03/11 04:26:37;;;;;;;16.00;8.63;;;;;;;;;;5053031;28;20017;-72
2021/03/11 04:29:04;;;;;;;15.13;9.15;;;;;;;;;;5052831;28;20557;-73
2021/03/11 04:31:30;;;;;;;16.45;8.77;;;;;;;;;;5053052;28;20120;-74
2021/03/11 04:33:57;;;;;;;14.50;8.90;;;;;;;;;;5053034;28;20025;-74
2021/03/11 04:36:23;;;;;;;13.63;8.45;;;;;;;;;;5051361;28;20147;-76
2021/03/11 04:38:50;;;;;;;14.32;9.02;;;;;;;;;;5051473;28;20029;-78
2021/03/11 04:41:16;;;;;;;13.52;8.65;;;;;;;;;;5052758;28;20021;-75
2021/03/11 04:43:42;;;;;;;13.05;8.95;;;;;;;;;;5052492;28;20030;-75
2021/03/11 04:46:08;;;;;;;17.02;10.32;;;;;;;;;;5052682;28;20029;-79
2021/03/11 04:48:35;;;;;;;14.98;10.30;;;;;;;;;;5052820;28;20044;-73
2021/03/11 04:51:02;;;;;;;15.73;9.45;;;;;;;;;;5051648;28;20429;-79
2021/03/11 04:53:28;;;;;;;12.57;8.27;;;;;;;;;;5052253;28;20032;-76
2021/03/11 04:55:55;;;;;;;14.75;8.48;;;;;;;;;;5033118;28;20029;-78
2021/03/11 04:58:21;;;;;;;13.68;8.40;;;;;;;;;;5031411;28;20033;-75
2021/03/11 05:00:48;;;;;;;13.65;9.13;;;;;;;;;;5032970;28;20025;-73
2021/03/11 05:03:15;;;;;;;11.63;8.52;;;;;;;;;;5032823;28;20149;-76
2021/03/11 05:05:42;;;;;;;13.77;7.85;;;;;;;;;;5032779;28;20084;-81
2021/03/11 05:08:09;;;;;;;12.75;8.63;;;;;;;;;;5035815;28;20112;-74
2021/03/11 05:10:35;;;;;;;14.65;8.85;;;;;;;;;;5052025;28;20427;-78
2021/03/11 05:13:02;;;;;;;13.98;8.90;;;;;;;;;;5039949;28;20022;-81
2021/03/11 05:15:28;;;;;;;14.23;8.60;;;;;;;;;;5031315;28;20053;-75
2021/03/11 05:17:54;;;;;;;13.77;8.55;;;;;;;;;;5048809;28;20013;-71
2021/03/11 05:20:22;;;;;;;12.68;8.27;;;;;;;;;;5052228;28;20057;-75
2021/03/11 05:22:48;;;;;;;14.10;8.63;;;;;;;;;;5031028;28;20044;-75
2021/03/11 05:25:14;;;;;;;14.25;8.45;;;;;;;;;;5031799;28;20026;-78
2021/03/11 05:27:41;;;;;;;13.85;8.18;;;;;;;;;;5031929;28;20026;-72
2021/03/11 05:30:09;;;;;;;16.00;9.40;;;;;;;;;;5018464;28;20054;-71
2021/03/11 05:32:35;;;;;;;18.45;9.27;;;;;;;;;;5011970;28;20417;-74
2021/03/11 05:35:01;;;;;;;15.57;8.82;;;;;;;;;;5011806;28;20033;-77
2021/03/11 05:37:27;;;;;;;16.23;9.13;;;;;;;;;;5011834;28;20106;-75
2021/03/11 05:39:53;;;;;;;14.57;8.77;;;;;;;;;;5011675;28;20105;-74
2021/03/11 05:42:20;;;;;;;13.23;8.75;;;;;;;;;;5013386;28;20029;-80
2021/03/11 05:44:46;;;;;;;14.95;9.77;;;;;;;;;;5011763;28;20479;-74
2021/03/11 05:47:13;;;;;;;17.45;9.32;;;;;;;;;;5025304;28;20108;-75
2021/03/11 05:49:40;;;;;;;18.77;10.23;;;;;;;;;;5031220;28;20167;-74
2021/03/11 05:52:06;;;;;;;16.17;9.13;;;;;;;;;;5031688;28;20091;-71
2021/03/11 05:54:33;;;;;;;12.90;7.72;;;;;;;;;;5031676;28;20100;-73
2021/03/11 05:57:00;;;;;;;10.35;7.18;;;;;;;;;;5030904;28;20014;-77
2021/03/11 05:59:27;;;;;;;16.73;8.25;;;;;;;;;;5012129;28;20119;-78
2021/03/11 06:01:53;;;;;;;13.07;8.52;;;;;;;;;;5011595;28;20030;-71
2021/03/11 06:04:19;;;;;;;12.10;7.63;;;;;;;;;;5026295;28;20117;-73
2021/03/11 06:06:46;;;;;;;13.68;8.48;;;;;;;;;;5031689;28;20025;-78
2021/03/11 06:09:12;;;;;;;15.30;9.05;;;;;;;;;;5030369;28;20037;-82
2021/03/11 06:11:38;;;;;;;14.20;8.45;;;;;;;;;;5031957;28;20014;-77
2021/03/11 06:14:07;;;;;;;14.07;8.82;;;;;;;;;;5031099;28;20517;-74
2021/03/11 06:16:33;;;;;;;13.60;8.27;;;;;;;;;;5031578;28;20117;-72
2021/03/11 06:19:00;;;;;;;12.48;8.60;;;;;;;;;;5031048;28;20022;-81
2021/03/11 06:21:26;;;;;;;14.30;8.77;;;;;;;;;;5039338;28;20037;-76
2021/03/11 06:23:52;;;;;;;12.70;8.13;;;;;;;;;;5051588;28;20067;-75
2021/03/11 06:26:18;;;;;;;13.55;8.10;;;;;;;;;;5051325;28;20550;-74
2021/03/11 06:28:47;;;;;;;13.63;8.60;;;;;;;;;;5050373;28;20562;-73
2021/03/11 06:31:27;;;;;;;13.55;8.65;;;;;;;;;;5051664;28;20013;-74
2021/03/11 06:33:57;;;;;;;13.52;8.30;;;;;;;;;;5045359;28;20082;-78
2021/03/11 06:36:28;;;;;;;13.95;8.68;;;;;;;;;;5051047;28;20021;-82
2021/03/11 06:38:54;;;;;;;13.88;8.48;;;;;;;;;;5049333;28;20021;-79
2021/03/11 06:41:20;;;;;;;17.70;8.27;;;;;;;;;;5051692;28;20021;-83
2021/03/11 06:43:58;;;;;;;13.73;9.30;;;;;;;;;;5051025;28;20057;-80
2021/03/11 06:46:26;;;;;;;13.65;9.32;;;;;;;;;;5053992;28;20024;-75
2021/03/11 06:49:07;;;;;;;14.55;9.50;;;;;;;;;;5054854;28;20033;-74
2021/03/11 06:51:33;;;;;;;11.52;8.30;;;;;;;;;;5055067;28;20472;-74
2021/03/11 06:54:00;;;;;;;12.43;8.55;;;;;;;;;;5049900;28;20021;-82
2021/03/11 06:56:27;;;;;;;12.77;9.15;;;;;;;;;;5033695;28;20490;-73
2021/03/11 06:59:00;;;;;;;15.45;9.20;;;;;;;;;;5035117;28;20504;-78
2021/03/11 07:01:27;;;;;;;14.23;8.82;;;;;;;;;;5033622;28;20028;-73
2021/03/11 07:03:53;;;;;;;13.05;8.63;;;;;;;;;;5034936;28;20013;-78
2021/03/11 07:06:46;;;;;;;13.07;8.40;;;;;;;;;;5034680;28;20026;-77
2021/03/11 07:09:12;;;;;;;15.47;8.80;;;;;;;;;;5034150;28;20057;-78
2021/03/11 07:11:51;;;;;;;11.50;8.00;;;;;;;;;;5035309;28;20092;-77
2021/03/11 07:14:25;;;;;;;13.15;8.88;;;;;;;;;;5034674;28;20029;-80
2021/03/11 07:16:51;;;;;;;15.65;8.35;;;;;;;;;;5033621;28;20028;-84
2021/03/11 07:19:18;;;;;;;12.30;8.20;;;;;;;;;;5037321;28;20029;-82
2021/03/11 07:21:55;;;;;;;14.88;8.98;;;;;;;;;;5052996;28;20063;-74
2021/03/11 07:24:34;;;;;;;11.80;8.27;;;;;;;;;;5054357;28;20055;-75
2021/03/11 07:27:00;;;;;;;15.93;8.38;;;;;;;;;;5054510;28;20028;-75
2021/03/11 07:29:26;;;;;;;12.77;8.55;;;;;;;;;;5052392;28;20033;-72
2021/03/11 07:31:56;;;;;;;11.52;7.22;;;;;;;;;;5054225;28;20079;-77
2021/03/11 07:34:27;;;;;;;17.50;8.52;;;;;;;;;;5053698;28;20021;-74
2021/03/11 07:36:57;;;;;;;14.32;8.65;;;;;;;;;;5054080;28;20108;-76
2021/03/11 07:39:23;;;;;;;12.68;8.43;;;;;;;;;;5052952;28;20028;-75
2021/03/11 07:41:49;;;;;;;12.70;8.35;;;;;;;;;;5053776;28;20052;-79
2021/03/11 07:44:16;;;;;;;13.93;7.50;;;;;;;;;;5054144;28;20205;-73
2021/03/11 07:46:42;;;;;;;14.43;8.68;;;;;;;;;;5051342;28;20021;-69
2021/03/11 07:49:08;;;;;;;14.20;7.65;;;;;;;;;;5053353;28;20033;-72
2021/03/11 07:51:34;;;;;;;12.38;7.80;;;;;;;;;;5053229;28;20029;-70
2021/03/11 07:54:00;;;;;;;11.48;8.00;;;;;;;;;;5053333;28;20086;-70
2021/03/11 07:56:27;;;;;;;12.90;7.68;;;;;;;;;;5050667;28;20032;-78
2021/03/11 07:58:53;;;;;;;12.38;8.80;;;;;;;;;;5053241;28;20032;-74
2021/03/11 08:01:19;;;;;;;14.00;8.10;;;;;;;;;;5051985;28;20029;-76
2021/03/11 08:03:46;;;;;;;13.45;8.75;;;;;;;;;;5034723;28;20026;-70
2021/03/11 08:06:26;;;;;;;12.75;8.63;;;;;;;;;;5033524;28;20546;-69
2021/03/11 08:08:53;;;;;;;14.13;8.43;;;;;;;;;;5033512;28;20087;-78
2021/03/11 08:11:38;;;;;;;13.05;8.18;;;;;;;;;;5033520;28;20025;-71
2021/03/11 08:14:17;;;;;;;12.88;8.60;;;;;;;;;;5031797;28;20509;-72
2021/03/11 08:16:43;;;;;;;12.20;8.15;;;;;;;;;;5033060;28;20517;-77
2021/03/11 08:19:09;;;;;;;10.55;8.15;;;;;;;;;;5033499;28;20029;-77
2021/03/11 08:21:35;;;;;;;11.77;7.78;;;;;;;;;;5032993;28;20045;-72
2021/03/11 08:24:01;;;;;;;12.88;8.50;;;;;;;;;;5033017;28;20025;-77
2021/03/11 08:26:39;;;;;;;12.43;8.23;;;;;;;;;;5032565;28;20040;-73
2021/03/11 08:29:21;;;;;;;11.15;8.23;;;;;;;;;;5032649;28;20037;-80
2021/03/11 08:31:48;;;;;;;12.38;8.02;;;;;;;;;;5031317;28;20025;-69
2021/03/11 08:34:32;;;;;;;11.52;8.05;;;;;;;;;;5031138;28;20045;-72
2021/03/11 08:37:17;;;;;;;12.80;8.40;;;;;;;;;;5033055;28;20125;-72
2021/03/11 08:39:43;;;;;;;11.90;8.38;;;;;;;;;;5031426;28;20036;-72
2021/03/11 08:42:28;;;;;;;13.75;8.35;;;;;;;;;;5036543;28;20025;-71
2021/03/11 08:44:54;;;;;;;14.95;8.80;;;;;;;;;;5051377;28;20083;-70
2021/03/11 08:47:20;;;;;;;12.20;7.78;;;;;;;;;;5051004;28;20032;-71
2021/03/11 08:49:46;;;;;;;10.23;7.65;;;;;;;;;;5051764;28;20040;-71
2021/03/11 08:52:30;;;;;;;13.52;8.05;;;;;;;;;;5051949;28;20086;-70
2021/03/11 08:55:16;;;;;;;12.20;8.23;;;;;;;;;;5051613;28;20246;-77
2021/03/11 08:57:43;;;;;;;11.07;7.45;;;;;;;;;;5052448;28;20021;-69
2021/03/11 09:00:09;;;;;;;12.63;8.55;;;;;;;;;;5051779;28;20041;-69
2021/03/11 09:02:35;;;;;;;12.40;8.48;;;;;;;;;;5050588;28;20052;-72
2021/03/11 09:05:01;;;;;;;19.77;9.00;;;;;;;;;;5051892;28;20493;-78
2021/03/11 09:07:29;;;;;;;14.60;8.82;;;;;;;;;;5051776;28;20028;-81
2021/03/11 09:09:55;;;;;;;17.02;8.25;;;;;;;;;;5050652;28;20029;-73
2021/03/11 09:12:35;;;;;;;13.23;9.02;;;;;;;;;;5051614;28;20029;-69
2021/03/11 09:15:02;;;;;;;12.30;8.20;;;;;;;;;;5051051;28;20021;-71
2021/03/11 09:17:30;;;;;;;14.73;8.88;;;;;;;;;;5050515;28;20082;-79
2021/03/11 09:20:01;;;;;;;14.45;8.43;;;;;;;;;;5050957;28;20531;-71
2021/03/11 09:22:30;;;;;;;12.90;8.45;;;;;;;;;;5050126;28;20056;-70
2021/03/11 09:24:56;;;;;;;10.30;8.05;;;;;;;;;;5049782;28;20104;-75
2021/03/11 09:27:22;;;;;;;14.07;8.52;;;;;;;;;;5044724;28;20029;-77
2021/03/11 09:29:49;;;;;;;12.90;7.55;;;;;;;;;;5033155;28;20560;-74
2021/03/11 09:32:15;;;;;;;11.32;8.32;;;;;;;;;;5044021;28;20021;-70
2021/03/11 09:34:58;;;;;;;11.43;8.05;;;;;;;;;;5051964;28;20428;-68
2021/03/11 09:37:43;;;;;;;10.65;7.97;;;;;;;;;;5031721;28;20032;-69
2021/03/11 09:40:10;;;;;;;12.20;8.30;;;;;;;;;;5031757;28;20022;-68
2021/03/11 09:42:36;;;;;;;11.65;8.48;;;;;;;;;;5034670;28;20021;-69
2021/03/11 09:45:02;;;;;;;10.32;7.03;;;;;;;;;;5032512;28;20037;-72
2021/03/11 09:47:28;;;;;;;13.88;7.85;;;;;;;;;;5030554;28;20057;-72
2021/03/11 09:50:08;;;;;;;11.35;8.23;;;;;;;;;;5031784;28;20036;-70
2021/03/11 09:52:53;;;;;;;11.63;8.05;;;;;;;;;;5031977;28;20021;-71
2021/03/11 09:55:19;;;;;;;11.55;7.97;;;;;;;;;;5031812;28;20021;-71
2021/03/11 09:57:45;;;;;;;12.85;8.73;;;;;;;;;;5031787;28;20032;-67
2021/03/11 10:00:11;;;;;;;11.43;7.60;;;;;;;;;;5031737;28;20025;-70
2021/03/11 10:02:50;;;;;;;11.65;7.68;;;;;;;;;;5032214;28;20079;-69
2021/03/11 10:05:17;;;;;;;11.23;7.55;;;;;;;;;;5031727;28;20030;-70
2021/03/11 10:07:43;;;;;;;12.95;7.50;;;;;;;;;;5031543;28;20016;-70
2021/03/11 10:10:13;;;;;;;13.15;7.63;;;;;;;;;;5030021;28;20025;-67
2021/03/11 10:12:45;;;;;;;14.82;8.00;;;;;;;;;;5031510;28;20032;-70
2021/03/11 10:15:12;;;;;;;13.57;7.07;;;;;;;;;;5032257;28;20555;-74
2021/03/11 10:17:38;;;;;;;14.57;8.07;;;;;;;;;;5031878;28;20021;-76
2021/03/11 10:20:24;;;;;;;16.02;7.95;;;;;;;;;;5045654;28;20029;-69
2021/03/11 10:22:50;;;;;;;23.38;7.20;;;;;;;;;;5055199;28;20037;-73
2021/03/11 10:25:17;;;;;;;34.83;11.13;;;;;;;;;;5054631;28;20025;-78
